createdAt,value
2023-01-13T00:00:27.574Z,74.43
2023-01-13T00:01:30.985Z,74.39
2023-01-13T00:02:33.861Z,74.45
2023-01-13T00:03:45.765Z,74.77
2023-01-13T00:04:47.726Z,74.37
2023-01-13T00:05:49.843Z,74.13
2023-01-13T00:06:52.126Z,74.28
2023-01-13T00:07:54.166Z,73.83
2023-01-13T00:08:57.945Z,74.17
2023-01-13T00:10:00.311Z,74.00
2023-01-13T00:11:01.984Z,74.22
2023-01-13T00:12:04.336Z,74.59
2023-01-13T00:13:06.429Z,74.55
2023-01-13T00:14:08.147Z,74.95
2023-01-13T00:15:10.132Z,75.31
2023-01-13T00:16:12.560Z,75.56
2023-01-13T00:17:14.635Z,75.29
2023-01-13T00:18:16.674Z,75.02
2023-01-13T00:19:18.381Z,74.90
2023-01-13T00:20:20.176Z,74.70
2023-01-13T00:21:23.383Z,74.67
2023-01-13T00:22:24.947Z,74.99
2023-01-13T00:23:29.275Z,74.65
2023-01-13T00:24:31.123Z,74.69
2023-01-13T00:25:33.044Z,74.55
2023-01-13T00:26:36.084Z,74.32
2023-01-13T00:27:38.323Z,74.42
2023-01-13T00:28:41.646Z,74.55
2023-01-13T00:29:44.619Z,74.31
2023-01-13T00:30:48.586Z,74.25
2023-01-13T00:31:50.454Z,74.58
2023-01-13T00:32:54.026Z,74.60
2023-01-13T00:34:07.116Z,74.68
2023-01-13T00:35:09.034Z,74.44
2023-01-13T00:36:14.168Z,74.73
2023-01-13T00:37:18.088Z,74.67
2023-01-13T00:38:20.915Z,74.24
2023-01-13T00:39:25.771Z,74.57
2023-01-13T00:40:36.383Z,74.45
2023-01-13T00:41:59.449Z,74.69
2023-01-13T00:44:39.110Z,74.21
2023-01-13T00:45:40.974Z,74.31
2023-01-13T00:46:48.697Z,73.97
2023-01-13T00:47:54.584Z,74.16
2023-01-13T00:48:57.668Z,73.95
2023-01-13T00:49:59.400Z,74.13
2023-01-13T00:51:25.349Z,74.04
2023-01-13T00:52:31.421Z,74.36
2023-01-13T00:53:36.689Z,74.59
2023-01-13T00:54:38.779Z,74.55
2023-01-13T00:55:40.862Z,75.26
2023-01-13T00:56:45.473Z,75.61
2023-01-13T00:57:47.642Z,75.57
2023-01-13T00:58:49.403Z,75.18
2023-01-13T00:59:51.532Z,75.37
2023-01-13T01:00:53.753Z,74.97
2023-01-13T01:01:56.527Z,74.70
2023-01-13T01:02:58.723Z,74.85
2023-01-13T01:04:00.435Z,74.33
2023-01-13T01:05:04.118Z,74.46
2023-01-13T01:06:09.405Z,74.31
2023-01-13T01:07:11.983Z,73.92
2023-01-13T01:08:15.164Z,73.81
2023-01-13T01:09:17.244Z,73.71
2023-01-13T01:10:20.645Z,73.81
2023-01-13T01:11:25.273Z,73.74
2023-01-13T01:12:27.680Z,74.24
2023-01-13T01:13:37.348Z,74.29
2023-01-13T01:14:39.117Z,74.13
2023-01-13T01:15:41.294Z,74.09
2023-01-13T01:16:43.040Z,74.37
2023-01-13T01:17:44.832Z,74.24
2023-01-13T01:18:46.884Z,74.08
2023-01-13T01:19:51.222Z,74.42
2023-01-13T01:20:52.803Z,74.28
2023-01-13T01:21:55.733Z,74.70
2023-01-13T01:22:59.811Z,74.59
2023-01-13T01:24:04.419Z,74.73
2023-01-13T01:25:09.210Z,75.09
2023-01-13T01:26:30.936Z,75.37
2023-01-13T01:28:55.105Z,75.25
2023-01-13T01:31:13.711Z,74.97
2023-01-13T01:32:17.644Z,74.58
2023-01-13T01:33:20.141Z,74.30
2023-01-13T01:34:25.659Z,74.04
2023-01-13T01:35:35.190Z,74.57
2023-01-13T01:36:45.706Z,74.44
2023-01-13T01:37:53.153Z,74.81
2023-01-13T01:38:57.602Z,74.56
2023-01-13T01:39:59.195Z,74.82
2023-01-13T01:41:00.790Z,74.67
2023-01-13T01:42:24.009Z,74.63
2023-01-13T01:44:07.293Z,74.34
2023-01-13T01:46:36.160Z,73.39
2023-01-13T01:47:37.776Z,73.33
2023-01-13T01:48:40.544Z,73.18
2023-01-13T01:49:43.645Z,73.26
2023-01-13T01:50:45.245Z,72.95
2023-01-13T01:51:48.921Z,73.10
2023-01-13T01:52:52.518Z,73.45
2023-01-13T01:53:54.941Z,72.97
2023-01-13T01:55:09.312Z,73.18
2023-01-13T01:56:11.543Z,73.36
2023-01-13T01:57:16.286Z,73.14
2023-01-13T01:58:30.856Z,73.26
2023-01-13T01:59:41.437Z,73.06
2023-01-13T02:00:44.358Z,72.93
2023-01-13T02:01:46.375Z,72.99
2023-01-13T02:02:50.686Z,72.72
2023-01-13T02:03:57.966Z,72.83
2023-01-13T02:05:00.210Z,72.72
2023-01-13T02:06:04.902Z,72.60
2023-01-13T02:07:08.348Z,72.57
2023-01-13T02:08:10.879Z,72.41
2023-01-13T02:09:12.952Z,72.42
2023-01-13T02:10:17.994Z,72.31
2023-01-13T02:11:46.889Z,72.13
2023-01-13T02:12:49.971Z,72.44
2023-01-13T02:13:52.359Z,72.06
2023-01-13T02:14:53.876Z,72.16
2023-01-13T02:16:14.501Z,72.37
2023-01-13T02:17:22.110Z,72.56
2023-01-13T02:18:43.942Z,72.57
2023-01-13T02:20:00.963Z,72.07
2023-01-13T02:21:06.157Z,72.53
2023-01-13T02:22:07.970Z,73.04
2023-01-13T02:23:46.791Z,72.62
2023-01-13T02:25:08.448Z,72.92
2023-01-13T02:26:28.318Z,72.52
2023-01-13T02:27:48.781Z,72.35
2023-01-13T02:29:15.561Z,72.44
2023-01-13T02:30:47.973Z,72.55
2023-01-13T02:31:49.636Z,72.64
2023-01-13T02:33:06.385Z,72.55
2023-01-13T02:34:28.237Z,72.97
2023-01-13T02:35:47.099Z,72.68
2023-01-13T02:36:56.632Z,72.33
2023-01-13T02:37:59.962Z,71.96
2023-01-13T02:39:07.384Z,72.22
2023-01-13T02:40:20.984Z,71.91
2023-01-13T02:41:46.325Z,72.26
2023-01-13T02:44:55.809Z,71.84
2023-01-13T02:45:59.629Z,71.82
2023-01-13T02:47:03.707Z,71.89
2023-01-13T02:49:48.650Z,71.97
2023-01-13T02:50:53.054Z,71.72
2023-01-13T02:53:40.738Z,72.19
2023-01-13T02:54:44.955Z,71.88
2023-01-13T02:55:47.720Z,71.81
2023-01-13T02:56:49.899Z,72.28
2023-01-13T02:59:12.599Z,72.48
2023-01-13T03:00:14.473Z,72.22
2023-01-13T03:01:16.824Z,72.31
2023-01-13T03:02:20.490Z,72.49
2023-01-13T03:03:22.362Z,72.34
2023-01-13T03:04:42.877Z,72.59
2023-01-13T03:05:45.368Z,72.46
2023-01-13T03:07:05.512Z,72.32
2023-01-13T03:08:09.849Z,72.33
2023-01-13T03:09:12.715Z,72.58
2023-01-13T03:10:40.730Z,72.87
2023-01-13T03:12:15.763Z,73.14
2023-01-13T03:13:35.516Z,72.90
2023-01-13T03:14:42.719Z,72.82
2023-01-13T03:15:55.479Z,72.95
2023-01-13T03:17:05.450Z,72.88
2023-01-13T03:18:31.561Z,73.07
2023-01-13T03:19:44.694Z,73.18
2023-01-13T03:20:53.961Z,73.48
2023-01-13T03:21:57.175Z,73.28
2023-01-13T03:23:21.981Z,72.83
2023-01-13T03:24:26.678Z,73.27
2023-01-13T03:25:30.542Z,72.89
2023-01-13T03:26:44.633Z,73.19
2023-01-13T03:27:51.166Z,72.88
2023-01-13T03:28:56.081Z,72.93
2023-01-13T03:30:05.239Z,73.02
2023-01-13T03:31:08.460Z,72.79
2023-01-13T03:32:14.680Z,72.70
2023-01-13T03:33:18.250Z,72.75
2023-01-13T03:34:21.371Z,72.44
2023-01-13T03:35:30.908Z,72.54
2023-01-13T03:36:34.929Z,72.66
2023-01-13T03:37:39.293Z,72.53
2023-01-13T03:38:43.274Z,72.55
2023-01-13T03:39:48.733Z,72.56
2023-01-13T03:41:15.104Z,72.65
2023-01-13T03:42:22.094Z,72.35
2023-01-13T03:43:50.425Z,71.91
2023-01-13T03:44:56.541Z,71.84
2023-01-13T03:46:03.243Z,72.06
2023-01-13T03:47:11.779Z,72.07
2023-01-13T03:48:15.857Z,72.64
2023-01-13T03:49:19.337Z,72.44
2023-01-13T03:50:22.579Z,72.26
2023-01-13T03:51:24.842Z,72.21
2023-01-13T03:52:30.778Z,72.40
2023-01-13T03:53:40.553Z,72.52
2023-01-13T03:54:45.025Z,72.17
2023-01-13T03:55:53.705Z,72.01
2023-01-13T03:56:56.515Z,71.76
2023-01-13T03:58:11.687Z,72.06
2023-01-13T03:59:14.887Z,72.14
2023-01-13T04:00:19.247Z,72.26
2023-01-13T04:01:23.187Z,72.56
2023-01-13T04:02:29.028Z,72.37
2023-01-13T04:03:34.046Z,72.32
2023-01-13T04:04:38.425Z,72.43
2023-01-13T04:05:41.880Z,72.63
2023-01-13T04:06:50.023Z,72.39
2023-01-13T04:07:58.013Z,72.26
2023-01-13T04:09:07.228Z,72.16
2023-01-13T04:10:09.369Z,72.27
2023-01-13T04:11:12.411Z,72.43
2023-01-13T04:12:23.832Z,72.69
2023-01-13T04:13:31.541Z,73.00
2023-01-13T04:14:33.385Z,72.95
2023-01-13T04:15:36.742Z,73.14
2023-01-13T04:16:38.923Z,73.40
2023-01-13T04:17:42.398Z,73.07
2023-01-13T04:18:46.596Z,73.03
2023-01-13T04:19:49.681Z,72.93
2023-01-13T04:20:52.362Z,72.71
2023-01-13T04:21:53.935Z,72.67
2023-01-13T04:22:58.587Z,73.00
2023-01-13T04:24:01.184Z,73.47
2023-01-13T04:25:05.161Z,73.11
2023-01-13T04:26:07.982Z,73.30
2023-01-13T04:27:09.929Z,73.06
2023-01-13T04:28:11.935Z,73.31
2023-01-13T04:29:15.626Z,73.74
2023-01-13T04:30:17.742Z,74.18
2023-01-13T04:31:21.793Z,73.81
2023-01-13T04:32:32.276Z,74.46
2023-01-13T04:33:35.257Z,74.26
2023-01-13T04:34:38.369Z,74.14
2023-01-13T04:35:40.405Z,74.79
2023-01-13T04:36:43.587Z,74.77
2023-01-13T04:37:45.538Z,75.04
2023-01-13T04:38:47.295Z,75.19
2023-01-13T04:39:49.433Z,74.76
2023-01-13T04:40:51.257Z,74.76
2023-01-13T04:41:59.389Z,74.80
2023-01-13T04:43:02.615Z,74.24
2023-01-13T04:44:04.982Z,74.34
2023-01-13T04:46:26.785Z,73.98
2023-01-13T04:47:39.008Z,74.22
2023-01-13T04:48:42.975Z,74.14
2023-01-13T04:49:44.820Z,73.74
2023-01-13T04:50:47.771Z,73.76
2023-01-13T04:51:49.849Z,73.52
2023-01-13T04:52:51.724Z,73.68
2023-01-13T04:53:53.919Z,73.51
2023-01-13T04:54:59.961Z,73.43
2023-01-13T04:56:02.169Z,73.00
2023-01-13T04:57:08.413Z,73.04
2023-01-13T04:58:10.731Z,73.13
2023-01-13T04:59:16.959Z,73.08
2023-01-13T05:00:22.140Z,72.98
2023-01-13T05:01:24.701Z,73.13
2023-01-13T05:02:28.041Z,72.56
2023-01-13T05:03:30.074Z,72.43
2023-01-13T05:04:32.233Z,72.68
2023-01-13T05:05:34.534Z,72.56
2023-01-13T05:06:36.814Z,72.47
2023-01-13T05:07:38.857Z,72.48
2023-01-13T05:08:40.935Z,72.83
2023-01-13T05:09:43.076Z,73.03
2023-01-13T05:10:45.304Z,72.62
2023-01-13T05:12:05.793Z,72.88
2023-01-13T05:13:27.483Z,72.58
2023-01-13T05:14:47.749Z,72.59
2023-01-13T05:16:11.356Z,72.74
2023-01-13T05:17:15.011Z,72.90
2023-01-13T05:18:17.065Z,73.10
2023-01-13T05:19:20.446Z,73.07
2023-01-13T05:20:23.362Z,73.07
2023-01-13T05:21:43.505Z,73.04
2023-01-13T05:23:07.193Z,72.93
2023-01-13T05:24:27.920Z,73.20
2023-01-13T05:25:30.326Z,73.81
2023-01-13T05:26:31.975Z,73.75
2023-01-13T05:27:36.250Z,74.20
2023-01-13T05:28:38.993Z,73.52
2023-01-13T05:29:40.869Z,73.29
2023-01-13T05:30:46.221Z,73.25
2023-01-13T05:31:48.315Z,73.33
2023-01-13T05:32:51.336Z,73.83
2023-01-13T05:33:53.920Z,73.77
2023-01-13T05:34:56.320Z,73.26
2023-01-13T05:36:01.567Z,73.07
2023-01-13T05:37:06.544Z,73.39
2023-01-13T05:38:11.225Z,73.00
2023-01-13T05:39:13.219Z,72.99
2023-01-13T05:40:34.437Z,72.82
2023-01-13T05:41:56.020Z,72.92
2023-01-13T05:44:38.847Z,72.46
2023-01-13T05:45:43.203Z,72.39
2023-01-13T05:46:44.957Z,72.19
2023-01-13T05:47:47.829Z,72.41
2023-01-13T05:48:51.396Z,72.28
2023-01-13T05:49:54.567Z,72.42
2023-01-13T05:50:57.151Z,72.13
2023-01-13T05:51:59.387Z,72.21
2023-01-13T05:53:04.788Z,71.99
2023-01-13T05:54:11.272Z,71.82
2023-01-13T05:55:13.593Z,71.48
2023-01-13T05:56:19.277Z,71.45
2023-01-13T05:57:21.062Z,71.24
2023-01-13T05:58:23.764Z,70.97
2023-01-13T05:59:26.503Z,70.91
2023-01-13T06:00:29.958Z,70.70
2023-01-13T06:01:31.691Z,70.77
2023-01-13T06:02:35.370Z,70.68
2023-01-13T06:04:54.069Z,70.66
2023-01-13T06:05:59.775Z,70.38
2023-01-13T06:07:01.834Z,70.65
2023-01-13T06:08:04.553Z,70.33
2023-01-13T06:09:06.172Z,70.44
2023-01-13T06:10:08.345Z,70.20
2023-01-13T06:11:10.288Z,70.24
2023-01-13T06:12:13.158Z,70.58
2023-01-13T06:13:15.348Z,71.46
2023-01-13T06:14:17.237Z,71.46
2023-01-13T06:15:18.858Z,71.77
2023-01-13T06:16:21.150Z,71.72
2023-01-13T06:17:22.932Z,71.84
2023-01-13T06:18:25.427Z,71.56
2023-01-13T06:19:27.742Z,71.04
2023-01-13T06:20:29.426Z,70.52
2023-01-13T06:21:33.212Z,70.54
2023-01-13T06:22:36.705Z,69.61
2023-01-13T06:23:38.891Z,68.57
2023-01-13T06:24:41.049Z,68.69
2023-01-13T06:26:00.752Z,68.59
2023-01-13T06:27:02.801Z,68.52
2023-01-13T06:28:04.923Z,68.51
2023-01-13T06:29:06.736Z,67.83
2023-01-13T06:30:08.852Z,68.23
2023-01-13T06:31:11.206Z,68.51
2023-01-13T06:32:14.791Z,68.09
2023-01-13T06:33:18.670Z,68.29
2023-01-13T06:34:20.436Z,68.12
2023-01-13T06:35:25.391Z,68.30
2023-01-13T06:36:30.484Z,68.23
2023-01-13T06:37:32.632Z,68.39
2023-01-13T06:38:35.437Z,68.77
2023-01-13T06:39:37.767Z,68.66
2023-01-13T06:40:39.621Z,68.95
2023-01-13T06:42:00.262Z,68.78
2023-01-13T06:43:17.732Z,68.95
2023-01-13T06:44:19.771Z,69.16
2023-01-13T06:45:21.913Z,69.10
2023-01-13T06:46:24.011Z,69.44
2023-01-13T06:47:25.675Z,69.20
2023-01-13T06:48:33.435Z,69.04
2023-01-13T06:49:35.864Z,68.93
2023-01-13T06:50:38.121Z,69.17
2023-01-13T06:51:40.215Z,69.13
2023-01-13T06:52:42.296Z,68.79
2023-01-13T06:53:44.607Z,68.98
2023-01-13T06:54:47.996Z,68.92
2023-01-13T06:55:52.322Z,68.75
2023-01-13T06:56:54.173Z,68.80
2023-01-13T06:57:56.800Z,68.85
2023-01-13T06:58:58.661Z,69.12
2023-01-13T07:00:02.622Z,69.32
2023-01-13T07:01:04.569Z,69.14
2023-01-13T07:02:07.596Z,67.81
2023-01-13T07:03:11.370Z,68.42
2023-01-13T07:04:14.528Z,67.18
2023-01-13T07:05:16.466Z,67.47
2023-01-13T07:06:18.257Z,67.97
2023-01-13T07:07:20.983Z,68.18
2023-01-13T07:08:22.907Z,67.75
2023-01-13T07:09:24.492Z,67.85
2023-01-13T07:10:26.767Z,67.98
2023-01-13T07:11:28.527Z,67.03
2023-01-13T07:12:31.051Z,67.13
2023-01-13T07:13:53.614Z,67.47
2023-01-13T07:15:14.465Z,67.22
2023-01-13T07:16:16.222Z,67.34
2023-01-13T07:17:25.602Z,67.74
2023-01-13T07:18:30.261Z,67.93
2023-01-13T07:19:32.360Z,68.17
2023-01-13T07:20:34.683Z,67.65
2023-01-13T07:21:37.512Z,67.81
2023-01-13T07:22:39.695Z,67.73
2023-01-13T07:23:41.573Z,67.43
2023-01-13T07:24:43.509Z,67.12
2023-01-13T07:25:45.135Z,66.68
2023-01-13T07:26:47.861Z,67.00
2023-01-13T07:27:49.513Z,66.78
2023-01-13T07:28:51.507Z,66.49
2023-01-13T07:29:56.691Z,66.55
2023-01-13T07:30:58.797Z,65.88
2023-01-13T07:32:01.516Z,66.28
2023-01-13T07:33:03.677Z,66.29
2023-01-13T07:34:07.663Z,66.44
2023-01-13T07:35:09.510Z,66.83
2023-01-13T07:36:12.180Z,67.11
2023-01-13T07:37:13.857Z,68.00
2023-01-13T07:38:15.606Z,68.68
2023-01-13T07:39:18.147Z,68.71
2023-01-13T07:40:20.523Z,69.46
2023-01-13T07:41:40.863Z,69.26
2023-01-13T07:43:01.637Z,69.23
2023-01-13T07:44:06.767Z,69.93
2023-01-13T07:45:12.096Z,69.62
2023-01-13T07:46:21.212Z,69.82
2023-01-13T07:47:24.204Z,70.29
2023-01-13T07:48:27.376Z,70.42
2023-01-13T07:49:29.047Z,70.15
2023-01-13T07:50:33.310Z,70.41
2023-01-13T07:51:37.529Z,69.87
2023-01-13T07:52:39.668Z,69.65
2023-01-13T07:53:41.307Z,69.52
2023-01-13T07:54:43.026Z,69.34
2023-01-13T07:55:45.865Z,69.50
2023-01-13T07:56:47.935Z,69.20
2023-01-13T07:57:51.295Z,68.79
2023-01-13T07:58:53.887Z,68.57
2023-01-13T07:59:57.406Z,68.44
2023-01-13T08:00:59.336Z,68.00
2023-01-13T08:02:03.252Z,68.23
2023-01-13T08:03:06.222Z,67.77
2023-01-13T08:04:08.095Z,67.51
2023-01-13T08:05:10.664Z,67.45
2023-01-13T08:06:13.069Z,67.44
2023-01-13T08:07:15.388Z,67.08
2023-01-13T08:08:17.178Z,66.69
2023-01-13T08:09:19.527Z,67.15
2023-01-13T08:10:21.676Z,67.17
2023-01-13T08:11:23.815Z,66.98
2023-01-13T08:12:51.845Z,66.87
2023-01-13T08:13:58.291Z,66.72
2023-01-13T08:15:00.103Z,67.26
2023-01-13T08:16:02.751Z,67.36
2023-01-13T08:17:05.797Z,67.29
2023-01-13T08:18:07.405Z,67.83
2023-01-13T08:19:09.025Z,67.96
2023-01-13T08:20:12.688Z,68.19
2023-01-13T08:21:14.756Z,67.90
2023-01-13T08:22:16.554Z,67.91
2023-01-13T08:23:19.184Z,67.81
2023-01-13T08:24:21.346Z,67.84
2023-01-13T08:25:23.661Z,67.71
2023-01-13T08:26:25.521Z,67.27
2023-01-13T08:27:27.652Z,67.30
2023-01-13T08:28:29.681Z,66.83
2023-01-13T08:29:31.747Z,67.31
2023-01-13T08:30:34.728Z,66.93
2023-01-13T08:31:36.629Z,67.24
2023-01-13T08:32:39.049Z,66.97
2023-01-13T08:33:40.793Z,67.21
2023-01-13T08:34:42.402Z,67.19
2023-01-13T08:35:46.195Z,67.03
2023-01-13T08:36:50.055Z,67.23
2023-01-13T08:37:51.815Z,67.23
2023-01-13T08:38:53.833Z,67.30
2023-01-13T08:39:56.150Z,66.94
2023-01-13T08:40:58.905Z,67.18
2023-01-13T08:42:01.113Z,67.26
2023-01-13T08:43:03.340Z,67.38
2023-01-13T08:44:05.270Z,67.07
2023-01-13T08:45:07.212Z,67.12
2023-01-13T08:46:09.080Z,67.05
2023-01-13T08:47:11.302Z,67.31
2023-01-13T08:48:13.526Z,67.31
2023-01-13T08:49:16.816Z,67.35
2023-01-13T08:50:19.842Z,67.54
2023-01-13T08:51:22.857Z,67.52
2023-01-13T08:52:24.928Z,67.41
2023-01-13T08:53:27.431Z,67.33
2023-01-13T08:54:29.512Z,67.33
2023-01-13T08:55:32.229Z,67.54
2023-01-13T08:56:35.689Z,67.39
2023-01-13T08:57:37.540Z,67.60
2023-01-13T08:58:41.159Z,67.66
2023-01-13T08:59:43.815Z,67.74
2023-01-13T09:00:46.013Z,67.33
2023-01-13T09:01:48.027Z,67.49
2023-01-13T09:02:50.305Z,67.43
2023-01-13T09:03:52.742Z,67.17
2023-01-13T09:04:56.096Z,67.46
2023-01-13T09:05:58.326Z,66.94
2023-01-13T09:07:00.006Z,67.38
2023-01-13T09:08:02.543Z,66.97
2023-01-13T09:09:04.255Z,67.06
2023-01-13T09:10:06.332Z,67.52
2023-01-13T09:11:28.473Z,67.56
2023-01-13T09:12:59.325Z,67.50
2023-01-13T09:14:03.276Z,67.09
2023-01-13T09:15:06.799Z,67.36
2023-01-13T09:16:08.961Z,66.97
2023-01-13T09:17:12.480Z,67.15
2023-01-13T09:18:14.212Z,67.11
2023-01-13T09:19:18.529Z,67.04
2023-01-13T09:20:20.829Z,67.38
2023-01-13T09:21:23.735Z,66.69
2023-01-13T09:22:28.419Z,67.29
2023-01-13T09:23:30.600Z,67.35
2023-01-13T09:24:33.237Z,67.71
2023-01-13T09:25:36.795Z,66.64
2023-01-13T09:26:38.948Z,67.23
2023-01-13T09:27:41.136Z,65.75
2023-01-13T09:28:43.883Z,63.80
2023-01-13T09:29:46.048Z,62.98
2023-01-13T09:30:49.870Z,62.89
2023-01-13T09:31:52.023Z,62.56
2023-01-13T09:33:14.010Z,60.78
2023-01-13T09:34:35.811Z,59.94
2023-01-13T09:35:37.620Z,59.73
2023-01-13T09:36:40.153Z,59.47
2023-01-13T09:37:42.007Z,59.31
2023-01-13T09:38:43.848Z,57.52
2023-01-13T09:39:45.913Z,58.20
2023-01-13T09:40:47.973Z,57.96
2023-01-13T09:42:08.893Z,56.92
2023-01-13T09:43:38.991Z,56.87
2023-01-13T09:44:46.074Z,56.49
2023-01-13T09:46:27.422Z,57.31
2023-01-13T09:47:31.655Z,57.75
2023-01-13T09:48:51.886Z,57.50
2023-01-13T09:49:54.088Z,57.88
2023-01-13T09:51:17.613Z,58.00
2023-01-13T09:52:26.594Z,57.83
2023-01-13T09:53:29.443Z,58.01
2023-01-13T09:54:35.598Z,58.17
2023-01-13T09:55:37.319Z,57.35
2023-01-13T09:56:39.551Z,57.24
2023-01-13T09:57:42.012Z,57.74
2023-01-13T09:58:45.073Z,58.39
2023-01-13T09:59:47.376Z,58.21
2023-01-13T10:01:07.777Z,57.96
2023-01-13T10:02:28.316Z,58.28
2023-01-13T10:03:30.788Z,57.43
2023-01-13T10:04:33.295Z,58.07
2023-01-13T10:05:36.701Z,58.13
2023-01-13T10:06:42.626Z,58.07
2023-01-13T10:08:14.435Z,58.15
2023-01-13T10:09:21.566Z,58.20
2023-01-13T10:10:35.351Z,58.07
2023-01-13T10:11:57.014Z,57.75
2023-01-13T10:13:20.307Z,57.10
2023-01-13T10:14:35.205Z,56.83
2023-01-13T10:15:37.294Z,57.34
2023-01-13T10:16:48.076Z,58.06
2023-01-13T10:18:19.449Z,58.27
2023-01-13T10:19:28.953Z,58.59
2023-01-13T10:20:50.343Z,58.80
2023-01-13T10:21:55.755Z,59.11
2023-01-13T10:23:16.207Z,58.88
2023-01-13T10:24:25.338Z,59.23
2023-01-13T10:25:28.161Z,59.24
2023-01-13T10:26:38.741Z,59.31
2023-01-13T10:27:41.123Z,59.06
2023-01-13T10:28:42.950Z,59.25
2023-01-13T10:29:46.320Z,59.40
2023-01-13T10:30:48.623Z,59.15
2023-01-13T10:31:53.102Z,59.19
2023-01-13T10:32:54.693Z,59.11
2023-01-13T10:33:59.846Z,59.04
2023-01-13T10:35:02.517Z,58.93
2023-01-13T10:36:12.919Z,59.30
2023-01-13T10:37:26.624Z,59.03
2023-01-13T10:38:40.290Z,58.94
2023-01-13T10:39:43.034Z,59.01
2023-01-13T10:41:02.264Z,59.24
2023-01-13T10:42:07.507Z,60.05
2023-01-13T10:43:09.261Z,58.96
2023-01-13T10:44:15.623Z,59.78
2023-01-13T10:45:24.424Z,58.70
2023-01-13T10:46:26.245Z,58.78
2023-01-13T10:47:29.224Z,58.79
2023-01-13T10:48:38.635Z,58.80
2023-01-13T10:49:40.997Z,58.74
2023-01-13T10:50:43.288Z,57.63
2023-01-13T10:51:45.170Z,57.58
2023-01-13T10:53:00.168Z,56.61
2023-01-13T10:54:02.943Z,55.65
2023-01-13T10:55:08.619Z,54.32
2023-01-13T10:56:11.132Z,54.41
2023-01-13T10:57:19.041Z,53.58
2023-01-13T10:58:20.952Z,52.65
2023-01-13T10:59:23.722Z,54.17
2023-01-13T11:00:29.511Z,51.23
2023-01-13T11:01:31.620Z,51.98
2023-01-13T11:02:34.185Z,50.36
2023-01-13T11:03:40.672Z,51.25
2023-01-13T11:04:54.664Z,50.62
2023-01-13T11:05:57.150Z,49.40
2023-01-13T11:06:59.111Z,51.09
2023-01-13T11:08:01.160Z,51.02
2023-01-13T11:09:03.686Z,48.59
2023-01-13T11:10:14.386Z,49.51
2023-01-13T11:11:28.182Z,48.50
2023-01-13T11:12:33.644Z,48.93
2023-01-13T11:13:36.216Z,47.87
2023-01-13T11:14:41.764Z,47.15
2023-01-13T11:15:47.487Z,47.05
2023-01-13T11:16:53.712Z,47.25
2023-01-13T11:18:05.179Z,46.64
2023-01-13T11:19:14.668Z,47.01
2023-01-13T11:20:23.745Z,46.86
2023-01-13T11:21:28.374Z,47.49
2023-01-13T11:22:32.762Z,47.68
2023-01-13T11:23:36.033Z,47.22
2023-01-13T11:24:40.847Z,47.72
2023-01-13T11:25:44.224Z,47.37
2023-01-13T11:27:06.490Z,48.50
2023-01-13T11:28:17.187Z,47.94
2023-01-13T11:29:21.197Z,48.61
2023-01-13T11:30:34.047Z,47.96
2023-01-13T11:31:40.305Z,48.75
2023-01-13T11:32:57.898Z,49.00
2023-01-13T11:34:07.366Z,49.00
2023-01-13T11:35:16.188Z,49.45
2023-01-13T11:36:20.465Z,49.48
2023-01-13T11:37:26.880Z,49.48
2023-01-13T11:38:33.774Z,49.83
2023-01-13T11:39:47.053Z,50.19
2023-01-13T11:40:49.008Z,50.33
2023-01-13T11:42:22.597Z,50.67
2023-01-13T11:43:24.161Z,50.31
2023-01-13T11:44:29.119Z,50.49
2023-01-13T11:45:34.022Z,50.73
2023-01-13T11:46:36.496Z,50.86
2023-01-13T11:47:38.243Z,50.85
2023-01-13T11:48:43.174Z,51.13
2023-01-13T11:49:48.760Z,51.40
2023-01-13T11:51:08.821Z,51.61
2023-01-13T11:52:18.516Z,51.99
2023-01-13T11:53:20.016Z,52.85
2023-01-13T11:54:26.120Z,53.05
2023-01-13T11:55:45.621Z,52.80
2023-01-13T11:57:05.852Z,52.68
2023-01-13T11:58:25.809Z,52.73
2023-01-13T11:59:40.118Z,51.20
2023-01-13T12:01:05.622Z,51.36
2023-01-13T12:02:26.062Z,51.79
2023-01-13T12:03:31.400Z,51.80
2023-01-13T12:04:51.229Z,52.20
2023-01-13T12:05:59.909Z,52.06
2023-01-13T12:07:13.041Z,51.15
2023-01-13T12:08:14.895Z,51.33
2023-01-13T12:09:22.339Z,51.29
2023-01-13T12:10:43.219Z,51.31
2023-01-13T12:12:12.241Z,51.83
2023-01-13T12:13:14.195Z,52.41
2023-01-13T12:14:26.645Z,52.46
2023-01-13T12:15:32.126Z,52.68
2023-01-13T12:16:33.853Z,52.98
2023-01-13T12:17:48.273Z,52.94
2023-01-13T12:18:49.845Z,53.22
2023-01-13T12:19:51.615Z,53.79
2023-01-13T12:21:02.278Z,53.93
2023-01-13T12:22:14.159Z,54.23
2023-01-13T12:23:40.614Z,54.39
2023-01-13T12:24:49.894Z,54.99
2023-01-13T12:25:53.113Z,54.61
2023-01-13T12:26:55.458Z,54.96
2023-01-13T12:27:59.739Z,55.16
2023-01-13T12:29:15.353Z,55.03
2023-01-13T12:30:24.261Z,54.55
2023-01-13T12:31:26.335Z,55.09
2023-01-13T12:32:36.157Z,54.81
2023-01-13T12:33:53.327Z,54.74
2023-01-13T12:34:55.279Z,54.77
2023-01-13T12:36:01.703Z,54.33
2023-01-13T12:37:05.989Z,53.84
2023-01-13T12:38:12.606Z,53.71
2023-01-13T12:39:14.491Z,53.62
2023-01-13T12:40:22.135Z,53.48
2023-01-13T12:42:05.088Z,52.71
2023-01-13T12:43:26.382Z,53.08
2023-01-13T12:44:29.529Z,53.03
2023-01-13T12:45:32.378Z,52.94
2023-01-13T12:46:34.575Z,52.99
2023-01-13T12:47:40.537Z,52.79
2023-01-13T12:48:57.900Z,52.44
2023-01-13T12:50:18.231Z,51.57
2023-01-13T12:51:22.824Z,51.61
2023-01-13T12:52:25.771Z,51.63
2023-01-13T12:53:34.049Z,51.67
2023-01-13T12:54:44.559Z,52.05
2023-01-13T12:55:48.856Z,52.22
2023-01-13T12:56:50.910Z,51.23
2023-01-13T12:58:00.243Z,51.14
2023-01-13T12:59:17.328Z,50.58
2023-01-13T13:00:20.244Z,50.44
2023-01-13T13:01:22.652Z,50.14
2023-01-13T13:02:25.201Z,50.55
2023-01-13T13:03:28.392Z,49.85
2023-01-13T13:04:42.224Z,49.82
2023-01-13T13:05:45.143Z,50.01
2023-01-13T13:06:53.933Z,50.15
2023-01-13T13:08:05.274Z,50.72
2023-01-13T13:09:22.083Z,50.66
2023-01-13T13:10:29.310Z,50.41
2023-01-13T13:11:58.340Z,49.37
2023-01-13T13:13:19.199Z,49.08
2023-01-13T13:14:39.496Z,49.96
2023-01-13T13:15:41.235Z,49.33
2023-01-13T13:16:54.046Z,48.96
2023-01-13T13:17:58.929Z,49.80
2023-01-13T13:19:19.250Z,49.77
2023-01-13T13:20:39.621Z,49.75
2023-01-13T13:22:00.150Z,50.82
2023-01-13T13:23:01.725Z,51.53
2023-01-13T13:24:04.088Z,52.41
2023-01-13T13:25:05.867Z,53.67
2023-01-13T13:26:29.033Z,53.26
2023-01-13T13:27:41.715Z,54.54
2023-01-13T13:28:52.638Z,54.90
2023-01-13T13:30:13.589Z,55.60
2023-01-13T13:31:21.314Z,54.37
2023-01-13T13:32:30.225Z,54.33
2023-01-13T13:33:35.616Z,54.34
2023-01-13T13:34:40.313Z,54.13
2023-01-13T13:36:00.254Z,54.08
2023-01-13T13:37:24.666Z,53.17
2023-01-13T13:39:07.725Z,52.67
2023-01-13T13:40:28.357Z,53.48
2023-01-13T13:41:50.202Z,53.45
2023-01-13T13:43:18.236Z,53.59
2023-01-13T13:44:46.915Z,54.11
2023-01-13T13:46:10.588Z,54.53
2023-01-13T13:47:12.312Z,54.92
2023-01-13T13:48:19.906Z,55.66
2023-01-13T13:49:23.372Z,55.65
2023-01-13T13:50:24.980Z,55.53
2023-01-13T13:51:32.242Z,55.44
2023-01-13T13:52:37.305Z,55.61
2023-01-13T13:53:39.695Z,56.28
2023-01-13T13:54:42.270Z,55.85
2023-01-13T13:55:53.419Z,55.65
2023-01-13T13:56:55.374Z,55.97
2023-01-13T13:57:57.833Z,55.98
2023-01-13T13:59:00.126Z,55.48
2023-01-13T14:00:01.897Z,55.24
2023-01-13T14:01:25.625Z,54.72
2023-01-13T14:02:31.328Z,54.83
2023-01-13T14:03:35.673Z,55.35
2023-01-13T14:04:39.196Z,55.41
2023-01-13T14:05:50.825Z,55.01
2023-01-13T14:06:53.689Z,54.67
2023-01-13T14:08:02.371Z,54.96
2023-01-13T14:09:04.242Z,54.82
2023-01-13T14:10:08.646Z,55.16
2023-01-13T14:11:41.058Z,54.98
2023-01-13T14:12:42.936Z,55.40
2023-01-13T14:13:46.133Z,55.16
2023-01-13T14:14:53.747Z,55.35
2023-01-13T14:15:59.726Z,55.58
2023-01-13T14:17:02.057Z,55.49
2023-01-13T14:18:12.043Z,55.65
2023-01-13T14:19:29.171Z,55.76
2023-01-13T14:21:52.229Z,55.77
2023-01-13T14:22:53.930Z,55.77
2023-01-13T14:24:01.225Z,55.71
2023-01-13T14:25:19.884Z,56.19
2023-01-13T14:26:24.936Z,55.85
2023-01-13T14:27:28.195Z,56.12
2023-01-13T14:28:32.716Z,55.88
2023-01-13T14:29:34.620Z,56.01
2023-01-13T14:30:36.344Z,56.61
2023-01-13T14:31:38.809Z,56.54
2023-01-13T14:32:40.999Z,56.55
2023-01-13T14:33:49.422Z,56.23
2023-01-13T14:34:53.317Z,56.37
2023-01-13T14:36:06.886Z,56.22
2023-01-13T14:37:34.749Z,56.24